Coral Leaf — PHNI — position and weather

sailwx.info

Track history (hours):
 
Tides and Currents Weather Stations Pressure Air Temp Water Temp Dewpoint Dewpoint Depression Visibility Wind Speed Wind Dir Waves Ship Positions

Coral Leaf

Last reported at 2014-Dec-19 11:28 UTC. Time now 2014-Dec-19 12:01 UTC.
Position N 59°06' E 009°36'.

Length 108 m; draft 5.2 m.

Type: Ship (hazmat cat D). MMSI: 244036000.

Date/timePositionNaut miles runAvg speedWind from/ knotsBaromVisibWave heightAir tempDewpointWater temp
2014-Dec-19 11:28N 59°06' E 009°36'0 0.0
2014-Dec-19 09:33N 59°06' E 009°36'10 7.7
2014-Dec-19 08:13N 58°57' E 009°48'5 5.6
2014-Dec-19 07:16N 58°52' E 009°48'29 3.8
2014-Dec-18 23:33N 58°31' E 010°26'1414.2
2014-Dec-18 22:33N 58°19' E 010°43'1515.1
2014-Dec-18 21:34N 58°07' E 011°00'1515.2
2014-Dec-18 20:34N 57°55' E 011°18'10 9.7
2014-Dec-18 19:34N 57°55' E 011°36'9 9.3
2014-Dec-18 18:33N 58°03' E 011°47'3 1.4
2014-Dec-18 16:24N 58°05' E 011°49'0 0.0
2014-Dec-18 15:33N 58°05' E 011°49'0 0.0
2014-Dec-18 14:33N 58°05' E 011°49'0 0.0
2014-Dec-18 13:12N 58°05' E 011°49'0 0.0
2014-Dec-18 12:30N 58°05' E 011°49'0 0.0
2014-Dec-18 11:33N 58°05' E 011°49'0 0.0
2014-Dec-18 10:30N 58°05' E 011°49'0 0.0
2014-Dec-18 09:33N 58°05' E 011°49'0 0.0
2014-Dec-18 08:24N 58°05' E 011°49'0 0.0
2014-Dec-18 07:30N 58°05' E 011°49'0 0.0
2014-Dec-18 06:21N 58°05' E 011°49'0 0.0
2014-Dec-18 05:21N 58°05' E 011°49'0 0.0
2014-Dec-18 03:15N 58°05' E 011°49'0 0.0
2014-Dec-18 02:27N 58°05' E 011°49'0 0.0
2014-Dec-18 01:33N 58°05' E 011°49'4 3.9
2014-Dec-18 00:34N 58°02' E 011°47'9 9.1
2014-Dec-17 23:33N 57°55' E 011°35'1211.7
2014-Dec-17 22:33N 57°45' E 011°24'1413.7
2014-Dec-17 21:33N 57°31' E 011°26'1413.9
2014-Dec-17 20:33N 57°18' E 011°34'1514.0
2014-Dec-17 19:30N 57°04' E 011°43'1313.7
2014-Dec-17 18:33N 56°52' E 011°51'1413.5
2014-Dec-17 17:33N 56°39' E 011°58'2713.1
2014-Dec-17 15:27N 56°14' E 012°17'1112.3
2014-Dec-17 14:33N 56°07' E 012°33'1211.7
2014-Dec-17 13:33N 55°56' E 012°39'1413.6
2014-Dec-17 12:33N 55°42' E 012°41'1111.5
2014-Dec-17 11:33N 55°31' E 012°42'1312.6
2014-Dec-17 10:34N 55°18' E 012°41'1413.7
2014-Dec-17 09:33N 55°15' E 013°05'1813.0
2014-Dec-17 08:09N 55°14' E 013°37'812.8
2014-Dec-17 07:33N 55°14' E 013°50'1212.0
2014-Dec-17 06:33N 55°13' E 014°11'1212.3
2014-Dec-17 05:33N 55°21' E 014°27'1312.7
2014-Dec-17 04:33N 55°29' E 014°45'1413.6
2014-Dec-17 03:33N 55°36' E 015°06'1413.4
2014-Dec-17 02:33N 55°43' E 015°27'34911.5
2014-Dec-15 20:14N 59°38' E 023°28'811.9
2014-Dec-15 19:33N 59°41' E 023°43'1312.6
2014-Dec-15 18:33N 59°45' E 024°07'1313.0
2014-Dec-15 17:34N 59°47' E 024°32'  
2014-Dec-13 09:32N 59°44' E 024°27'1716.1
2014-Dec-13 08:30N 59°39' E 023°55'1516.0
2014-Dec-13 07:33N 59°34' E 023°27'35315.1
2014-Dec-12 08:11N 55°37' E 015°18'1015.7
2014-Dec-12 07:33N 55°32' E 015°03'1615.8
2014-Dec-12 06:33N 55°23' E 014°40'1615.6
2014-Dec-12 05:34N 55°11' E 014°23'1515.3
2014-Dec-12 04:34N 55°00' E 014°04'1615.9
2014-Dec-12 03:33N 54°55' E 013°38'5016.2
2014-Dec-12 00:29N 54°35' E 012°19'1415.0
2014-Dec-11 23:34N 54°24' E 012°05'1616.2
2014-Dec-11 22:33N 54°27' E 011°37'3816.0
2014-Dec-11 20:13N 54°33' E 010°34'1015.0
2014-Dec-11 19:33N 54°29' E 010°18'9 8.9
2014-Dec-11 18:33N 54°22' E 010°09'1 1.4
2014-Dec-11 17:33N 54°22' E 010°06'5 5.1
2014-Dec-11 16:33N 54°21' E 009°58'7 6.6
2014-Dec-11 15:33N 54°21' E 009°47'8 7.5
2014-Dec-11 14:33N 54°16' E 009°38'5 4.7
2014-Dec-11 13:29N 54°12' E 009°33'8 6.0
2014-Dec-11 12:09N 54°08' E 009°20'5 8.1
2014-Dec-11 11:33N 54°04' E 009°19'8 8.3
2014-Dec-11 10:33N 53°56' E 009°13'3 3.5
2014-Dec-11 09:33N 53°54' E 009°09'1 1.4
2014-Dec-11 08:34N 53°53' E 009°07'9 8.6
2014-Dec-11 07:34N 53°50' E 009°20'13 0.5
2014-Dec-10 04:20N 53°39' E 009°31'4 5.4
2014-Dec-10 03:33N 53°43' E 009°28'1312.8
2014-Dec-10 02:33N 53°53' E 009°14'3 3.4
2014-Dec-10 01:34N 53°54' E 009°09'4 3.9
2014-Dec-10 00:33N 53°56' E 009°13'8 7.6
2014-Dec-09 23:30N 54°04' E 009°19'8 6.2
2014-Dec-09 22:09N 54°11' E 009°27'4 6.1
2014-Dec-09 21:33N 54°12' E 009°33'2 2.3
2014-Dec-09 20:34N 54°13' E 009°36'7 7.2
2014-Dec-09 19:31N 54°20' E 009°43'7 7.5
2014-Dec-09 18:33N 54°21' E 009°55'2 1.9
2014-Dec-09 17:33N 54°21' E 009°59'5 4.7
2014-Dec-09 16:33N 54°22' E 010°06'2 2.2
2014-Dec-09 15:33N 54°22' E 010°10'1010.3
2014-Dec-09 14:33N 54°31' E 010°20'1212.4
2014-Dec-09 13:33N 54°35' E 010°40'  
Track history (hours):
 
Tides and Currents Weather Stations Pressure Air Temp Water Temp Dewpoint Dewpoint Depression Visibility Wind Speed Wind Dir Waves Ship Positions

Coral Leaf

Last reported at 2014-Dec-19 11:28 UTC. Time now 2014-Dec-19 12:01 UTC.
Position N 59°06' E 009°36'.

Length 108 m; draft 5.2 m.

Type: Ship (hazmat cat D). MMSI: 244036000.

Date/timePositionNaut miles runAvg speedWind from/ knotsBaromVisibWave heightAir tempDewpointWater temp
2014-Dec-19 11:28N 59°06' E 009°36'0 0.0
2014-Dec-19 09:33N 59°06' E 009°36'10 7.7
2014-Dec-19 08:13N 58°57' E 009°48'5 5.6
2014-Dec-19 07:16N 58°52' E 009°48'29 3.8
2014-Dec-18 23:33N 58°31' E 010°26'1414.2
2014-Dec-18 22:33N 58°19' E 010°43'1515.1
2014-Dec-18 21:34N 58°07' E 011°00'1515.2
2014-Dec-18 20:34N 57°55' E 011°18'10 9.7
2014-Dec-18 19:34N 57°55' E 011°36'9 9.3
2014-Dec-18 18:33N 58°03' E 011°47'3 1.4
2014-Dec-18 16:24N 58°05' E 011°49'0 0.0
2014-Dec-18 15:33N 58°05' E 011°49'0 0.0
2014-Dec-18 14:33N 58°05' E 011°49'0 0.0
2014-Dec-18 13:12N 58°05' E 011°49'0 0.0
2014-Dec-18 12:30N 58°05' E 011°49'0 0.0
2014-Dec-18 11:33N 58°05' E 011°49'0 0.0
2014-Dec-18 10:30N 58°05' E 011°49'0 0.0
2014-Dec-18 09:33N 58°05' E 011°49'0 0.0
2014-Dec-18 08:24N 58°05' E 011°49'0 0.0
2014-Dec-18 07:30N 58°05' E 011°49'0 0.0
2014-Dec-18 06:21N 58°05' E 011°49'0 0.0
2014-Dec-18 05:21N 58°05' E 011°49'0 0.0
2014-Dec-18 03:15N 58°05' E 011°49'0 0.0
2014-Dec-18 02:27N 58°05' E 011°49'0 0.0
2014-Dec-18 01:33N 58°05' E 011°49'4 3.9
2014-Dec-18 00:34N 58°02' E 011°47'9 9.1
2014-Dec-17 23:33N 57°55' E 011°35'1211.7
2014-Dec-17 22:33N 57°45' E 011°24'1413.7
2014-Dec-17 21:33N 57°31' E 011°26'1413.9
2014-Dec-17 20:33N 57°18' E 011°34'1514.0
2014-Dec-17 19:30N 57°04' E 011°43'1313.7
2014-Dec-17 18:33N 56°52' E 011°51'1413.5
2014-Dec-17 17:33N 56°39' E 011°58'2713.1
2014-Dec-17 15:27N 56°14' E 012°17'1112.3
2014-Dec-17 14:33N 56°07' E 012°33'1211.7
2014-Dec-17 13:33N 55°56' E 012°39'1413.6
2014-Dec-17 12:33N 55°42' E 012°41'1111.5
2014-Dec-17 11:33N 55°31' E 012°42'1312.6
2014-Dec-17 10:34N 55°18' E 012°41'1413.7
2014-Dec-17 09:33N 55°15' E 013°05'1813.0
2014-Dec-17 08:09N 55°14' E 013°37'812.8
2014-Dec-17 07:33N 55°14' E 013°50'1212.0
2014-Dec-17 06:33N 55°13' E 014°11'1212.3
2014-Dec-17 05:33N 55°21' E 014°27'1312.7
2014-Dec-17 04:33N 55°29' E 014°45'1413.6
2014-Dec-17 03:33N 55°36' E 015°06'1413.4
2014-Dec-17 02:33N 55°43' E 015°27'34911.5
2014-Dec-15 20:14N 59°38' E 023°28'811.9
2014-Dec-15 19:33N 59°41' E 023°43'1312.6
2014-Dec-15 18:33N 59°45' E 024°07'1313.0
2014-Dec-15 17:34N 59°47' E 024°32'  
2014-Dec-13 09:32N 59°44' E 024°27'1716.1
2014-Dec-13 08:30N 59°39' E 023°55'1516.0
2014-Dec-13 07:33N 59°34' E 023°27'35315.1
2014-Dec-12 08:11N 55°37' E 015°18'1015.7
2014-Dec-12 07:33N 55°32' E 015°03'1615.8
2014-Dec-12 06:33N 55°23' E 014°40'1615.6
2014-Dec-12 05:34N 55°11' E 014°23'1515.3
2014-Dec-12 04:34N 55°00' E 014°04'1615.9
2014-Dec-12 03:33N 54°55' E 013°38'5016.2
2014-Dec-12 00:29N 54°35' E 012°19'1415.0
2014-Dec-11 23:34N 54°24' E 012°05'1616.2
2014-Dec-11 22:33N 54°27' E 011°37'3816.0
2014-Dec-11 20:13N 54°33' E 010°34'1015.0
2014-Dec-11 19:33N 54°29' E 010°18'9 8.9
2014-Dec-11 18:33N 54°22' E 010°09'1 1.4
2014-Dec-11 17:33N 54°22' E 010°06'5 5.1
2014-Dec-11 16:33N 54°21' E 009°58'7 6.6
2014-Dec-11 15:33N 54°21' E 009°47'8 7.5
2014-Dec-11 14:33N 54°16' E 009°38'5 4.7
2014-Dec-11 13:29N 54°12' E 009°33'8 6.0
2014-Dec-11 12:09N 54°08' E 009°20'5 8.1
2014-Dec-11 11:33N 54°04' E 009°19'8 8.3
2014-Dec-11 10:33N 53°56' E 009°13'3 3.5
2014-Dec-11 09:33N 53°54' E 009°09'1 1.4
2014-Dec-11 08:34N 53°53' E 009°07'9 8.6
2014-Dec-11 07:34N 53°50' E 009°20'13 0.5
2014-Dec-10 04:20N 53°39' E 009°31'4 5.4
2014-Dec-10 03:33N 53°43' E 009°28'1312.8
2014-Dec-10 02:33N 53°53' E 009°14'3 3.4
2014-Dec-10 01:34N 53°54' E 009°09'4 3.9
2014-Dec-10 00:33N 53°56' E 009°13'8 7.6
2014-Dec-09 23:30N 54°04' E 009°19'8 6.2
2014-Dec-09 22:09N 54°11' E 009°27'4 6.1
2014-Dec-09 21:33N 54°12' E 009°33'2 2.3
2014-Dec-09 20:34N 54°13' E 009°36'7 7.2
2014-Dec-09 19:31N 54°20' E 009°43'7 7.5
2014-Dec-09 18:33N 54°21' E 009°55'2 1.9
2014-Dec-09 17:33N 54°21' E 009°59'5 4.7
2014-Dec-09 16:33N 54°22' E 010°06'2 2.2
2014-Dec-09 15:33N 54°22' E 010°10'1010.3
2014-Dec-09 14:33N 54°31' E 010°20'1212.4
2014-Dec-09 13:33N 54°35' E 010°40'  

Dump ship's entire track history